sensor_id;sensor_type;location;lat;lon;timestamp;temperature;humidity
18648;DHT22;9453;50.294;18.644;2023-04-24T04:03:01;13.10;79.50
18648;DHT22;9453;50.294;18.644;2023-04-24T04:05:28;13.20;79.60
18648;DHT22;9453;50.294;18.644;2023-04-24T04:07:58;13.20;79.40
18648;DHT22;9453;50.294;18.644;2023-04-24T04:10:25;13.20;78.70
18648;DHT22;9453;50.294;18.644;2023-04-24T04:12:52;13.20;78.50
18648;DHT22;9453;50.294;18.644;2023-04-24T04:15:21;13.30;78.70
18648;DHT22;9453;50.294;18.644;2023-04-24T04:17:48;13.30;78.10
18648;DHT22;9453;50.294;18.644;2023-04-24T04:20:16;13.30;77.20
18648;DHT22;9453;50.294;18.644;2023-04-24T04:22:43;13.30;77.00
18648;DHT22;9453;50.294;18.644;2023-04-24T04:25:10;13.30;76.40
18648;DHT22;9453;50.294;18.644;2023-04-24T04:27:39;13.40;76.70
18648;DHT22;9453;50.294;18.644;2023-04-24T04:30:07;13.40;76.60
18648;DHT22;9453;50.294;18.644;2023-04-24T04:32:35;13.50;76.20
18648;DHT22;9453;50.294;18.644;2023-04-24T04:35:03;13.50;76.70
18648;DHT22;9453;50.294;18.644;2023-04-24T04:37:32;13.60;76.60
18648;DHT22;9453;50.294;18.644;2023-04-24T04:40:00;13.60;75.90
18648;DHT22;9453;50.294;18.644;2023-04-24T04:42:31;13.70;75.80
18648;DHT22;9453;50.294;18.644;2023-04-24T04:45:01;13.70;75.70
18648;DHT22;9453;50.294;18.644;2023-04-24T04:47:28;13.80;75.40
18648;DHT22;9453;50.294;18.644;2023-04-24T04:49:58;13.90;75.30
18648;DHT22;9453;50.294;18.644;2023-04-24T04:52:25;13.90;75.10
18648;DHT22;9453;50.294;18.644;2023-04-24T04:54:53;13.90;74.40
18648;DHT22;9453;50.294;18.644;2023-04-24T04:57:20;14.00;74.40
18648;DHT22;9453;50.294;18.644;2023-04-24T04:59:47;14.10;74.10
18648;DHT22;9453;50.294;18.644;2023-04-24T05:02:14;14.10;73.60
18648;DHT22;9453;50.294;18.644;2023-04-24T05:04:43;14.10;73.60
18648;DHT22;9453;50.294;18.644;2023-04-24T05:07:10;14.20;73.70
18648;DHT22;9453;50.294;18.644;2023-04-24T05:09:37;14.30;73.60
18648;DHT22;9453;50.294;18.644;2023-04-24T05:12:06;14.30;72.60
18648;DHT22;9453;50.294;18.644;2023-04-24T05:14:33;14.40;72.00
18648;DHT22;9453;50.294;18.644;2023-04-24T05:16:59;14.50;72.00
18648;DHT22;9453;50.294;18.644;2023-04-24T05:19:26;14.60;71.50
18648;DHT22;9453;50.294;18.644;2023-04-24T05:21:53;14.60;71.60
18648;DHT22;9453;50.294;18.644;2023-04-24T05:24:20;14.70;71.30
18648;DHT22;9453;50.294;18.644;2023-04-24T05:26:47;14.80;71.10
18648;DHT22;9453;50.294;18.644;2023-04-24T05:29:15;14.80;70.10
18648;DHT22;9453;50.294;18.644;2023-04-24T05:31:44;14.90;69.60
18648;DHT22;9453;50.294;18.644;2023-04-24T05:34:11;15.00;69.40
18648;DHT22;9453;50.294;18.644;2023-04-24T05:36:38;15.00;69.40
18648;DHT22;9453;50.294;18.644;2023-04-24T05:39:05;15.10;67.70
18648;DHT22;9453;50.294;18.644;2023-04-24T05:41:32;15.30;68.30
18648;DHT22;9453;50.294;18.644;2023-04-24T05:43:59;15.40;67.30
18648;DHT22;9453;50.294;18.644;2023-04-24T05:46:28;15.60;67.30
18648;DHT22;9453;50.294;18.644;2023-04-24T05:48:55;15.80;66.70
18648;DHT22;9453;50.294;18.644;2023-04-24T05:51:22;16.00;66.40
18648;DHT22;9453;50.294;18.644;2023-04-24T05:53:49;16.20;65.90
18648;DHT22;9453;50.294;18.644;2023-04-24T05:56:16;16.30;65.20
18648;DHT22;9453;50.294;18.644;2023-04-24T05:58:43;16.60;64.90
18648;DHT22;9453;50.294;18.644;2023-04-24T06:01:10;16.80;64.00
18648;DHT22;9453;50.294;18.644;2023-04-24T06:03:39;17.10;63.50
18648;DHT22;9453;50.294;18.644;2023-04-24T06:06:06;17.20;61.40
18648;DHT22;9453;50.294;18.644;2023-04-24T06:14:46;17.90;59.10
18648;DHT22;9453;50.294;18.644;2023-04-24T09:53:02;23.40;47.10
18648;DHT22;9453;50.294;18.644;2023-04-24T11:41:38;22.00;51.30
18648;DHT22;9453;50.294;18.644;2023-04-24T11:44:06;21.90;51.20
18648;DHT22;9453;50.294;18.644;2023-04-24T11:46:47;21.70;51.00
18648;DHT22;9453;50.294;18.644;2023-04-24T11:49:15;21.70;51.90
18648;DHT22;9453;50.294;18.644;2023-04-24T11:51:43;21.70;51.80
18648;DHT22;9453;50.294;18.644;2023-04-24T11:54:10;21.70;51.30
18648;DHT22;9453;50.294;18.644;2023-04-24T11:56:38;21.70;52.00
18648;DHT22;9453;50.294;18.644;2023-04-24T11:59:05;21.80;51.90
18648;DHT22;9453;50.294;18.644;2023-04-24T12:01:43;21.80;51.80
18648;DHT22;9453;50.294;18.644;2023-04-24T12:04:10;21.80;51.60
18648;DHT22;9453;50.294;18.644;2023-04-24T12:06:37;21.60;51.10
18648;DHT22;9453;50.294;18.644;2023-04-24T12:09:04;21.50;51.90
18648;DHT22;9453;50.294;18.644;2023-04-24T12:11:56;21.30;51.90
18648;DHT22;9453;50.294;18.644;2023-04-24T12:14:23;21.00;52.90
18648;DHT22;9453;50.294;18.644;2023-04-24T12:16:50;20.80;53.30
18648;DHT22;9453;50.294;18.644;2023-04-24T12:19:20;20.70;53.90
18648;DHT22;9453;50.294;18.644;2023-04-24T12:22:00;20.60;54.00
18648;DHT22;9453;50.294;18.644;2023-04-24T12:24:34;20.60;55.00
18648;DHT22;9453;50.294;18.644;2023-04-24T12:27:05;20.60;54.90
18648;DHT22;9453;50.294;18.644;2023-04-24T12:29:51;20.60;55.10
18648;DHT22;9453;50.294;18.644;2023-04-24T12:32:25;20.60;55.00
18648;DHT22;9453;50.294;18.644;2023-04-24T12:34:53;20.60;55.00
18648;DHT22;9453;50.294;18.644;2023-04-24T12:45:39;21.10;55.30
18648;DHT22;9453;50.294;18.644;2023-04-24T12:48:10;21.30;54.40
18648;DHT22;9453;50.294;18.644;2023-04-24T12:50:38;21.60;54.10
18648;DHT22;9453;50.294;18.644;2023-04-24T12:56:06;22.30;53.80
18648;DHT22;9453;50.294;18.644;2023-04-24T12:58:40;22.60;53.00
18648;DHT22;9453;50.294;18.644;2023-04-24T13:01:13;22.50;53.20
18648;DHT22;9453;50.294;18.644;2023-04-24T13:03:40;22.60;53.50
18648;DHT22;9453;50.294;18.644;2023-04-24T13:06:14;22.70;52.50
18648;DHT22;9453;50.294;18.644;2023-04-24T13:08:45;22.70;52.60
18648;DHT22;9453;50.294;18.644;2023-04-24T13:11:13;22.60;52.70
18648;DHT22;9453;50.294;18.644;2023-04-24T13:13:40;22.50;53.20
18648;DHT22;9453;50.294;18.644;2023-04-24T13:16:11;22.30;53.30
18648;DHT22;9453;50.294;18.644;2023-04-24T13:18:38;22.10;52.70
18648;DHT22;9453;50.294;18.644;2023-04-24T13:21:13;21.90;53.30
18648;DHT22;9453;50.294;18.644;2023-04-24T13:23:42;21.80;53.90
18648;DHT22;9453;50.294;18.644;2023-04-24T13:26:11;21.70;53.90
18648;DHT22;9453;50.294;18.644;2023-04-24T13:28:38;21.50;54.40
18648;DHT22;9453;50.294;18.644;2023-04-24T13:31:05;21.40;54.40
18648;DHT22;9453;50.294;18.644;2023-04-24T13:33:34;21.30;54.90
18648;DHT22;9453;50.294;18.644;2023-04-24T13:42:44;20.80;56.00
18648;DHT22;9453;50.294;18.644;2023-04-24T13:44:37;20.80;56.60
18648;DHT22;9453;50.294;18.644;2023-04-24T13:47:04;20.70;56.30
18648;DHT22;9453;50.294;18.644;2023-04-24T13:49:35;20.60;56.90
18648;DHT22;9453;50.294;18.644;2023-04-24T13:52:02;20.50;57.20
18648;DHT22;9453;50.294;18.644;2023-04-24T13:54:39;20.40;57.60
18648;DHT22;9453;50.294;18.644;2023-04-24T13:57:06;20.30;57.80
18648;DHT22;9453;50.294;18.644;2023-04-24T13:59:33;20.10;58.00
18648;DHT22;9453;50.294;18.644;2023-04-24T14:02:00;19.90;58.40
18648;DHT22;9453;50.294;18.644;2023-04-24T14:04:27;19.70;59.20
18648;DHT22;9453;50.294;18.644;2023-04-24T14:06:55;19.60;59.90
18648;DHT22;9453;50.294;18.644;2023-04-24T14:09:32;19.40;60.30
18648;DHT22;9453;50.294;18.644;2023-04-24T14:12:05;19.30;60.80
18648;DHT22;9453;50.294;18.644;2023-04-24T14:14:32;19.30;61.50
18648;DHT22;9453;50.294;18.644;2023-04-24T14:17:00;19.30;62.00
18648;DHT22;9453;50.294;18.644;2023-04-24T14:19:27;19.30;62.20
18648;DHT22;9453;50.294;18.644;2023-04-24T14:21:56;19.30;62.10
18648;DHT22;9453;50.294;18.644;2023-04-24T14:24:23;19.30;62.00
18648;DHT22;9453;50.294;18.644;2023-04-24T14:26:51;19.30;62.00
18648;DHT22;9453;50.294;18.644;2023-04-24T14:29:18;19.20;61.90
18648;DHT22;9453;50.294;18.644;2023-04-24T14:32:04;19.30;61.40
18648;DHT22;9453;50.294;18.644;2023-04-24T14:34:31;19.30;62.00
18648;DHT22;9453;50.294;18.644;2023-04-24T14:37:15;19.30;62.70
18648;DHT22;9453;50.294;18.644;2023-04-24T14:39:42;19.20;62.80
18648;DHT22;9453;50.294;18.644;2023-04-24T14:42:11;19.10;62.60
18648;DHT22;9453;50.294;18.644;2023-04-24T14:44:52;19.00;63.30
18648;DHT22;9453;50.294;18.644;2023-04-24T14:47:21;19.00;64.20
18648;DHT22;9453;50.294;18.644;2023-04-24T14:49:50;19.00;64.50
18648;DHT22;9453;50.294;18.644;2023-04-24T14:52:21;19.00;64.30
18648;DHT22;9453;50.294;18.644;2023-04-24T14:54:48;18.90;64.00
18648;DHT22;9453;50.294;18.644;2023-04-24T14:57:15;18.80;64.50
18648;DHT22;9453;50.294;18.644;2023-04-24T15:00:07;18.70;63.70
18648;DHT22;9453;50.294;18.644;2023-04-24T15:02:54;18.60;63.90
18648;DHT22;9453;50.294;18.644;2023-04-24T15:05:37;18.50;64.60
18648;DHT22;9453;50.294;18.644;2023-04-24T15:08:42;18.40;64.50
18648;DHT22;9453;50.294;18.644;2023-04-24T15:11:12;18.30;65.30
18648;DHT22;9453;50.294;18.644;2023-04-24T15:14:58;18.30;65.60
18648;DHT22;9453;50.294;18.644;2023-04-24T15:16:44;18.20;65.90
18648;DHT22;9453;50.294;18.644;2023-04-24T15:22:03;18.00;66.70
18648;DHT22;9453;50.294;18.644;2023-04-24T15:24:40;17.90;67.00
18648;DHT22;9453;50.294;18.644;2023-04-24T15:34:47;17.60;68.90
18648;DHT22;9453;50.294;18.644;2023-04-24T15:37:25;17.50;69.50
18648;DHT22;9453;50.294;18.644;2023-04-24T15:40:09;17.50;70.30
18648;DHT22;9453;50.294;18.644;2023-04-24T15:42:42;17.30;70.10
18648;DHT22;9453;50.294;18.644;2023-04-24T15:45:25;17.20;70.80
18648;DHT22;9453;50.294;18.644;2023-04-24T15:48:06;17.00;71.70
18648;DHT22;9453;50.294;18.644;2023-04-24T15:53:24;17.00;74.60
18648;DHT22;9453;50.294;18.644;2023-04-24T15:56:34;16.80;75.20
18648;DHT22;9453;50.294;18.644;2023-04-24T15:59:02;16.70;76.10
18648;DHT22;9453;50.294;18.644;2023-04-24T16:01:45;16.60;76.60
18648;DHT22;9453;50.294;18.644;2023-04-24T16:04:14;16.50;77.10
18648;DHT22;9453;50.294;18.644;2023-04-24T16:06:50;16.40;77.20
18648;DHT22;9453;50.294;18.644;2023-04-24T16:09:23;16.40;77.90
18648;DHT22;9453;50.294;18.644;2023-04-24T16:12:07;16.30;78.50
18648;DHT22;9453;50.294;18.644;2023-04-24T16:14:35;16.30;79.30
18648;DHT22;9453;50.294;18.644;2023-04-24T16:17:04;16.30;79.70
18648;DHT22;9453;50.294;18.644;2023-04-24T16:19:40;16.20;81.00
18648;DHT22;9453;50.294;18.644;2023-04-24T16:22:08;16.10;81.90
18648;DHT22;9453;50.294;18.644;2023-04-24T16:24:36;16.10;82.80
18648;DHT22;9453;50.294;18.644;2023-04-24T16:30:12;15.90;83.30
18648;DHT22;9453;50.294;18.644;2023-04-24T16:32:44;15.80;83.80
18648;DHT22;9453;50.294;18.644;2023-04-24T16:35:25;15.70;84.80
18648;DHT22;9453;50.294;18.644;2023-04-24T16:37:54;15.60;84.80
18648;DHT22;9453;50.294;18.644;2023-04-24T16:40:47;15.60;85.90
18648;DHT22;9453;50.294;18.644;2023-04-24T16:43:30;15.50;87.80
18648;DHT22;9453;50.294;18.644;2023-04-24T16:46:01;15.50;88.90
18648;DHT22;9453;50.294;18.644;2023-04-24T16:48:31;15.40;90.00
18648;DHT22;9453;50.294;18.644;2023-04-24T16:51:07;15.40;90.00
18648;DHT22;9453;50.294;18.644;2023-04-24T16:56:53;15.30;89.90
18648;DHT22;9453;50.294;18.644;2023-04-24T16:59:47;15.30;90.30
18648;DHT22;9453;50.294;18.644;2023-04-24T17:02:14;15.10;90.40
18648;DHT22;9453;50.294;18.644;2023-04-24T17:04:44;15.10;90.90
18648;DHT22;9453;50.294;18.644;2023-04-24T17:07:15;15.00;90.80
18648;DHT22;9453;50.294;18.644;2023-04-24T17:10:04;15.00;91.10
18648;DHT22;9453;50.294;18.644;2023-04-24T17:13:07;15.00;91.50
18648;DHT22;9453;50.294;18.644;2023-04-24T17:15:46;14.90;91.70
18648;DHT22;9453;50.294;18.644;2023-04-24T17:18:28;14.90;92.30
18648;DHT22;9453;50.294;18.644;2023-04-24T17:20:57;14.80;92.60
18648;DHT22;9453;50.294;18.644;2023-04-24T17:23:39;14.70;93.10
18648;DHT22;9453;50.294;18.644;2023-04-24T17:26:41;14.70;93.40
18648;DHT22;9453;50.294;18.644;2023-04-24T17:29:40;14.70;93.40
18648;DHT22;9453;50.294;18.644;2023-04-24T17:32:20;14.70;93.20
18648;DHT22;9453;50.294;18.644;2023-04-24T17:35:24;14.60;92.80
18648;DHT22;9453;50.294;18.644;2023-04-24T17:38:05;14.50;93.00
18648;DHT22;9453;50.294;18.644;2023-04-24T17:40:36;14.50;93.30
18648;DHT22;9453;50.294;18.644;2023-04-24T17:43:05;14.40;93.70
18648;DHT22;9453;50.294;18.644;2023-04-24T17:45:49;14.40;93.90
18648;DHT22;9453;50.294;18.644;2023-04-24T17:48:24;14.50;94.10
18648;DHT22;9453;50.294;18.644;2023-04-24T17:51:06;14.50;94.10
18648;DHT22;9453;50.294;18.644;2023-04-24T17:53:52;14.50;94.30
18648;DHT22;9453;50.294;18.644;2023-04-24T17:56:35;14.40;94.20
18648;DHT22;9453;50.294;18.644;2023-04-24T17:59:02;14.40;94.30
18648;DHT22;9453;50.294;18.644;2023-04-24T18:01:30;14.40;94.90
18648;DHT22;9453;50.294;18.644;2023-04-24T18:04:05;14.50;94.60
18648;DHT22;9453;50.294;18.644;2023-04-24T18:06:32;14.40;94.90
18648;DHT22;9453;50.294;18.644;2023-04-24T18:09:02;14.40;95.30
18648;DHT22;9453;50.294;18.644;2023-04-24T18:11:36;14.40;95.50
18648;DHT22;9453;50.294;18.644;2023-04-24T18:14:05;14.40;96.10
18648;DHT22;9453;50.294;18.644;2023-04-24T18:16:38;14.40;97.00
18648;DHT22;9453;50.294;18.644;2023-04-24T18:19:06;14.30;97.80
18648;DHT22;9453;50.294;18.644;2023-04-24T18:21:54;14.30;98.60
18648;DHT22;9453;50.294;18.644;2023-04-24T18:24:24;14.30;99.30
18648;DHT22;9453;50.294;18.644;2023-04-24T18:26:51;14.20;99.30
18648;DHT22;9453;50.294;18.644;2023-04-24T18:29:30;14.10;99.90
18648;DHT22;9453;50.294;18.644;2023-04-24T18:35:14;14.00;99.90
18648;DHT22;9453;50.294;18.644;2023-04-24T18:37:45;14.00;99.90
18648;DHT22;9453;50.294;18.644;2023-04-24T18:40:15;14.00;99.90
18648;DHT22;9453;50.294;18.644;2023-04-24T18:42:48;13.90;99.90
18648;DHT22;9453;50.294;18.644;2023-04-24T18:45:43;13.90;99.90
18648;DHT22;9453;50.294;18.644;2023-04-24T18:48:10;13.70;99.90
18648;DHT22;9453;50.294;18.644;2023-04-24T18:50:42;13.50;99.90
18648;DHT22;9453;50.294;18.644;2023-04-24T18:53:09;13.40;99.90
18648;DHT22;9453;50.294;18.644;2023-04-24T18:55:39;13.30;99.90
18648;DHT22;9453;50.294;18.644;2023-04-24T18:58:06;13.30;99.90
18648;DHT22;9453;50.294;18.644;2023-04-24T19:00:33;13.20;99.90
18648;DHT22;9453;50.294;18.644;2023-04-24T19:03:02;13.10;99.90
18648;DHT22;9453;50.294;18.644;2023-04-24T19:05:29;13.10;99.90
18648;DHT22;9453;50.294;18.644;2023-04-24T19:07:57;13.10;99.90
18648;DHT22;9453;50.294;18.644;2023-04-24T19:10:24;13.10;99.90
18648;DHT22;9453;50.294;18.644;2023-04-24T19:12:52;13.00;99.90
18648;DHT22;9453;50.294;18.644;2023-04-24T19:15:24;13.10;99.90
18648;DHT22;9453;50.294;18.644;2023-04-24T19:17:53;13.00;99.90
18648;DHT22;9453;50.294;18.644;2023-04-24T19:20:24;13.00;99.90
18648;DHT22;9453;50.294;18.644;2023-04-24T19:22:54;13.10;99.90
18648;DHT22;9453;50.294;18.644;2023-04-24T19:25:23;12.90;99.90
18648;DHT22;9453;50.294;18.644;2023-04-24T19:27:52;12.70;99.90
18648;DHT22;9453;50.294;18.644;2023-04-24T19:30:24;12.70;99.90
18648;DHT22;9453;50.294;18.644;2023-04-24T19:33:17;12.60;99.90
18648;DHT22;9453;50.294;18.644;2023-04-24T19:36:14;12.50;99.90
18648;DHT22;9453;50.294;18.644;2023-04-24T19:38:42;12.70;99.90
18648;DHT22;9453;50.294;18.644;2023-04-24T19:41:12;12.70;99.90
18648;DHT22;9453;50.294;18.644;2023-04-24T19:43:45;12.70;99.90
18648;DHT22;9453;50.294;18.644;2023-04-24T19:46:18;12.80;99.90
18648;DHT22;9453;50.294;18.644;2023-04-24T19:48:49;12.60;99.90
18648;DHT22;9453;50.294;18.644;2023-04-24T19:51:16;12.50;99.90
18648;DHT22;9453;50.294;18.644;2023-04-24T19:53:55;12.30;99.90
18648;DHT22;9453;50.294;18.644;2023-04-24T19:56:23;12.20;99.90
18648;DHT22;9453;50.294;18.644;2023-04-24T19:58:50;12.10;99.90
18648;DHT22;9453;50.294;18.644;2023-04-24T20:01:19;12.00;99.90
18648;DHT22;9453;50.294;18.644;2023-04-24T20:03:47;11.90;99.90
18648;DHT22;9453;50.294;18.644;2023-04-24T20:06:14;11.90;99.90
18648;DHT22;9453;50.294;18.644;2023-04-24T20:08:41;11.90;99.90
18648;DHT22;9453;50.294;18.644;2023-04-24T20:11:09;11.80;99.90
18648;DHT22;9453;50.294;18.644;2023-04-24T20:13:40;11.80;99.90
18648;DHT22;9453;50.294;18.644;2023-04-24T20:16:25;11.80;99.90
18648;DHT22;9453;50.294;18.644;2023-04-24T20:18:55;11.70;99.90
18648;DHT22;9453;50.294;18.644;2023-04-24T20:21:22;11.70;99.90
18648;DHT22;9453;50.294;18.644;2023-04-24T20:23:49;11.60;99.90
18648;DHT22;9453;50.294;18.644;2023-04-24T20:26:19;11.60;99.90
18648;DHT22;9453;50.294;18.644;2023-04-24T20:29:18;11.50;99.90
18648;DHT22;9453;50.294;18.644;2023-04-24T20:31:58;11.50;99.90
18648;DHT22;9453;50.294;18.644;2023-04-24T20:34:45;11.50;99.90
18648;DHT22;9453;50.294;18.644;2023-04-24T20:37:13;11.40;99.90
18648;DHT22;9453;50.294;18.644;2023-04-24T20:39:53;11.50;99.90
18648;DHT22;9453;50.294;18.644;2023-04-24T20:42:27;11.30;99.90
18648;DHT22;9453;50.294;18.644;2023-04-24T20:55:01;11.20;99.90
18648;DHT22;9453;50.294;18.644;2023-04-24T20:57:29;11.20;99.90
18648;DHT22;9453;50.294;18.644;2023-04-24T20:59:56;11.10;99.90
18648;DHT22;9453;50.294;18.644;2023-04-24T21:02:25;11.10;99.90
18648;DHT22;9453;50.294;18.644;2023-04-24T21:04:54;11.10;99.90
18648;DHT22;9453;50.294;18.644;2023-04-24T21:07:21;11.10;99.90
18648;DHT22;9453;50.294;18.644;2023-04-24T21:09:48;11.20;99.90
18648;DHT22;9453;50.294;18.644;2023-04-24T21:12:16;11.20;99.90
18648;DHT22;9453;50.294;18.644;2023-04-24T21:14:43;11.20;99.90
18648;DHT22;9453;50.294;18.644;2023-04-24T21:17:10;11.20;99.90
18648;DHT22;9453;50.294;18.644;2023-04-24T21:19:50;11.20;99.90
18648;DHT22;9453;50.294;18.644;2023-04-24T21:22:29;11.20;99.90
18648;DHT22;9453;50.294;18.644;2023-04-24T21:25:00;11.30;99.90
18648;DHT22;9453;50.294;18.644;2023-04-24T21:27:40;11.30;99.90
18648;DHT22;9453;50.294;18.644;2023-04-24T21:30:08;11.20;99.90
18648;DHT22;9453;50.294;18.644;2023-04-24T21:32:42;11.20;99.90
18648;DHT22;9453;50.294;18.644;2023-04-24T21:35:10;11.20;99.90
18648;DHT22;9453;50.294;18.644;2023-04-24T21:37:40;11.20;99.90
18648;DHT22;9453;50.294;18.644;2023-04-24T21:40:11;11.20;99.90
18648;DHT22;9453;50.294;18.644;2023-04-24T21:42:45;11.10;99.90
18648;DHT22;9453;50.294;18.644;2023-04-24T21:45:19;11.10;99.90
18648;DHT22;9453;50.294;18.644;2023-04-24T21:47:48;11.10;99.90
18648;DHT22;9453;50.294;18.644;2023-04-24T21:50:16;11.10;99.90
18648;DHT22;9453;50.294;18.644;2023-04-24T21:52:43;11.10;99.90
18648;DHT22;9453;50.294;18.644;2023-04-24T21:55:10;11.10;99.90
18648;DHT22;9453;50.294;18.644;2023-04-24T21:57:37;11.10;99.90
18648;DHT22;9453;50.294;18.644;2023-04-24T22:00:07;11.10;99.90
18648;DHT22;9453;50.294;18.644;2023-04-24T22:02:35;11.10;99.90
18648;DHT22;9453;50.294;18.644;2023-04-24T22:05:04;11.10;99.90
18648;DHT22;9453;50.294;18.644;2023-04-24T22:07:33;11.10;99.90
18648;DHT22;9453;50.294;18.644;2023-04-24T22:12:35;11.10;99.90
18648;DHT22;9453;50.294;18.644;2023-04-24T22:15:04;11.00;99.90
18648;DHT22;9453;50.294;18.644;2023-04-24T22:17:33;11.00;99.90
18648;DHT22;9453;50.294;18.644;2023-04-24T22:20:00;11.00;99.90
18648;DHT22;9453;50.294;18.644;2023-04-24T22:22:27;11.00;99.90
18648;DHT22;9453;50.294;18.644;2023-04-24T22:25:14;11.00;99.90
18648;DHT22;9453;50.294;18.644;2023-04-24T22:27:43;11.00;99.90
18648;DHT22;9453;50.294;18.644;2023-04-24T22:30:11;11.10;99.90
18648;DHT22;9453;50.294;18.644;2023-04-24T22:33:04;11.10;99.90
18648;DHT22;9453;50.294;18.644;2023-04-24T22:35:58;11.20;99.90
18648;DHT22;9453;50.294;18.644;2023-04-24T22:38:34;11.20;99.90
18648;DHT22;9453;50.294;18.644;2023-04-24T22:41:10;11.30;99.90
18648;DHT22;9453;50.294;18.644;2023-04-24T22:43:39;11.40;99.90
18648;DHT22;9453;50.294;18.644;2023-04-24T22:46:10;11.50;99.90
18648;DHT22;9453;50.294;18.644;2023-04-24T22:48:41;11.50;99.90
18648;DHT22;9453;50.294;18.644;2023-04-24T22:51:10;11.60;99.90
18648;DHT22;9453;50.294;18.644;2023-04-24T22:53:37;11.60;99.90
18648;DHT22;9453;50.294;18.644;2023-04-24T22:56:04;11.70;99.90
18648;DHT22;9453;50.294;18.644;2023-04-24T22:58:34;11.70;99.90
